createdAt,value
2018-04-15T00:01:08.115Z,99.90
2018-04-15T00:03:42.306Z,99.90
2018-04-15T00:06:17.651Z,99.90
2018-04-15T00:08:52.311Z,99.90
2018-04-15T00:11:26.403Z,99.90
2018-04-15T00:14:02.058Z,99.90
2018-04-15T00:16:35.960Z,99.90
2018-04-15T00:19:11.538Z,99.90
2018-04-15T00:21:45.648Z,99.90
2018-04-15T00:24:21.477Z,99.90
2018-04-15T00:26:57.121Z,99.90
2018-04-15T00:29:32.056Z,99.90
2018-04-15T00:32:06.805Z,99.90
2018-04-15T00:34:41.655Z,99.90
2018-04-15T00:37:15.611Z,99.90
2018-04-15T00:39:50.548Z,99.90
2018-04-15T00:42:24.439Z,99.90
2018-04-15T00:45:00.312Z,99.90
2018-04-15T00:47:34.110Z,99.90
2018-04-15T00:50:11.498Z,99.90
2018-04-15T00:52:45.691Z,99.90
2018-04-15T00:55:20.652Z,99.90
2018-04-15T00:57:55.889Z,99.90
2018-04-15T01:00:32.524Z,99.90
2018-04-15T01:03:07.390Z,99.90
2018-04-15T01:05:42.932Z,99.90
2018-04-15T01:08:18.781Z,99.90
2018-04-15T01:10:53.761Z,99.90
2018-04-15T01:13:29.636Z,99.90
2018-04-15T01:16:03.964Z,99.90
2018-04-15T01:18:38.619Z,99.90
2018-04-15T01:21:13.227Z,99.90
2018-04-15T01:23:48.058Z,99.90
2018-04-15T01:26:22.870Z,99.90
2018-04-15T01:28:57.934Z,99.90
2018-04-15T01:31:32.448Z,99.90
2018-04-15T01:34:06.618Z,99.90
2018-04-15T01:36:41.795Z,99.90
2018-04-15T01:39:15.694Z,99.90
2018-04-15T01:41:51.242Z,99.90
2018-04-15T01:44:26.285Z,99.90
2018-04-15T01:47:00.814Z,99.90
2018-04-15T01:49:35.499Z,99.90
2018-04-15T01:52:10.354Z,99.90
2018-04-15T01:54:44.061Z,99.90
2018-04-15T01:57:19.815Z,99.90
2018-04-15T01:59:54.630Z,99.90
2018-04-15T02:02:29.048Z,99.90
2018-04-15T02:05:03.011Z,99.90
2018-04-15T02:07:38.819Z,99.90
2018-04-15T02:10:13.981Z,99.90
2018-04-15T02:12:50.727Z,99.90
2018-04-15T02:15:24.509Z,99.90
2018-04-15T02:17:59.922Z,99.90
2018-04-15T02:20:34.512Z,99.90
2018-04-15T02:23:10.135Z,99.90
2018-04-15T02:25:43.948Z,99.90
2018-04-15T02:28:18.390Z,99.90
2018-04-15T02:30:53.287Z,99.90
2018-04-15T02:33:27.015Z,99.90
2018-04-15T02:36:02.234Z,99.90
2018-04-15T02:38:36.250Z,99.90
2018-04-15T02:41:11.322Z,99.90
2018-04-15T02:43:45.833Z,99.90
2018-04-15T02:46:20.740Z,99.90
2018-04-15T02:48:54.531Z,99.90
2018-04-15T02:51:31.201Z,99.90
2018-04-15T02:54:05.931Z,99.90
2018-04-15T02:56:44.032Z,99.90
2018-04-15T02:59:18.441Z,99.90
2018-04-15T03:01:52.991Z,99.90
2018-04-15T03:04:27.089Z,99.90
2018-04-15T03:07:01.029Z,99.90
2018-04-15T03:09:35.724Z,99.90
2018-04-15T03:12:10.548Z,99.90
2018-04-15T03:14:45.151Z,99.90
2018-04-15T03:17:20.119Z,99.90
2018-04-15T03:19:54.441Z,99.90
2018-04-15T03:22:29.717Z,99.90
2018-04-15T03:25:03.560Z,99.90
2018-04-15T03:27:39.327Z,99.90
2018-04-15T03:30:13.448Z,99.90
2018-04-15T03:32:48.355Z,99.90
2018-04-15T03:35:22.066Z,99.90
2018-04-15T03:37:58.332Z,99.90
2018-04-15T03:40:33.151Z,99.90
2018-04-15T03:43:09.297Z,99.90
2018-04-15T03:45:43.098Z,99.90
2018-04-15T03:48:20.405Z,99.90
2018-04-15T03:50:54.525Z,99.90
2018-04-15T03:53:28.631Z,99.90
2018-04-15T03:56:04.370Z,99.90
2018-04-15T03:58:39.073Z,99.90
2018-04-15T04:01:12.733Z,99.90
2018-04-15T04:03:47.725Z,99.90
2018-04-15T04:06:21.448Z,99.90
2018-04-15T04:08:57.088Z,99.90
2018-04-15T04:11:31.303Z,99.90
2018-04-15T04:14:06.323Z,99.90
2018-04-15T04:16:40.766Z,99.90
2018-04-15T04:19:27.177Z,99.90
2018-04-15T04:22:13.552Z,99.90
2018-04-15T04:24:59.515Z,99.90
2018-04-15T04:27:34.283Z,99.90
2018-04-15T04:30:10.943Z,99.90
2018-04-15T04:32:45.177Z,99.90
2018-04-15T04:35:20.400Z,99.90
2018-04-15T04:37:55.223Z,99.90
2018-04-15T04:40:30.138Z,99.90
2018-04-15T04:43:04.683Z,99.90
2018-04-15T04:45:39.203Z,99.90
2018-04-15T04:48:14.341Z,99.90
2018-04-15T04:50:49.667Z,99.90
2018-04-15T04:53:25.339Z,99.90
2018-04-15T04:56:00.454Z,99.90
2018-04-15T04:58:34.484Z,99.90
2018-04-15T05:01:09.702Z,99.90
2018-04-15T05:03:45.993Z,99.90
2018-04-15T05:06:20.790Z,99.90
2018-04-15T05:08:56.443Z,99.90
2018-04-15T05:11:31.089Z,99.90
2018-04-15T05:14:06.611Z,99.90
2018-04-15T05:16:40.630Z,99.90
2018-04-15T05:19:15.573Z,99.90
2018-04-15T05:21:50.591Z,99.90
2018-04-15T05:24:25.159Z,99.90
2018-04-15T05:26:59.927Z,99.90
2018-04-15T05:29:34.270Z,99.90
2018-04-15T05:32:11.467Z,99.90
2018-04-15T05:34:46.791Z,99.90
2018-04-15T05:37:21.723Z,99.90
2018-04-15T05:39:57.458Z,99.90
2018-04-15T05:42:31.366Z,99.90
2018-04-15T05:45:06.390Z,99.90
2018-04-15T05:47:40.509Z,99.90
2018-04-15T05:50:15.557Z,99.90
2018-04-15T05:52:49.958Z,99.90
2018-04-15T05:55:23.662Z,99.90
2018-04-15T05:57:57.503Z,99.90
2018-04-15T06:00:31.466Z,99.90
2018-04-15T06:03:07.036Z,99.90
2018-04-15T06:05:41.746Z,99.90
2018-04-15T06:08:17.718Z,99.90
2018-04-15T06:10:51.312Z,99.90
2018-04-15T06:13:27.266Z,99.90
2018-04-15T06:16:01.985Z,99.90
2018-04-15T06:18:35.594Z,99.90
2018-04-15T06:21:10.099Z,99.90
2018-04-15T06:23:44.009Z,99.90
2018-04-15T06:26:18.142Z,99.90
2018-04-15T06:28:52.337Z,99.90
2018-04-15T06:31:28.107Z,99.90
2018-04-15T06:34:02.810Z,99.90
2018-04-15T06:36:37.566Z,99.90
2018-04-15T06:39:11.339Z,99.90
2018-04-15T06:41:46.140Z,99.90
2018-04-15T06:44:20.069Z,99.90
2018-04-15T06:46:54.931Z,99.90
2018-04-15T06:49:29.526Z,99.90
2018-04-15T06:52:04.465Z,99.90
2018-04-15T06:54:39.402Z,99.90
2018-04-15T06:57:16.581Z,99.90
2018-04-15T06:59:50.584Z,99.90
2018-04-15T07:02:25.735Z,99.90
2018-04-15T07:04:59.514Z,99.90
2018-04-15T07:07:33.338Z,99.90
2018-04-15T07:10:08.372Z,99.90
2018-04-15T07:12:42.803Z,99.90
2018-04-15T07:15:18.134Z,99.90
2018-04-15T07:17:52.030Z,99.90
2018-04-15T07:20:28.273Z,99.90
2018-04-15T07:23:02.426Z,99.90
2018-04-15T07:25:36.922Z,99.90
2018-04-15T07:28:11.314Z,99.90
2018-04-15T07:30:45.912Z,99.90
2018-04-15T07:33:19.675Z,99.90
2018-04-15T07:35:54.211Z,99.90
2018-04-15T07:38:29.348Z,99.90
2018-04-15T07:41:06.100Z,99.90
2018-04-15T07:43:40.010Z,99.90
2018-04-15T07:46:15.676Z,99.90
2018-04-15T07:48:50.699Z,99.90
2018-04-15T07:51:25.207Z,99.90
2018-04-15T07:53:59.244Z,99.90
2018-04-15T07:56:34.047Z,99.90
2018-04-15T07:59:09.683Z,99.90
2018-04-15T08:01:43.345Z,99.90
2018-04-15T08:04:17.838Z,99.90
2018-04-15T08:06:52.670Z,99.90
2018-04-15T08:09:27.267Z,99.90
2018-04-15T08:12:01.199Z,99.90
2018-04-15T08:14:35.084Z,99.50
2018-04-15T08:17:10.133Z,99.90
2018-04-15T08:19:45.307Z,99.70
2018-04-15T08:22:19.987Z,99.70
2018-04-15T08:24:53.988Z,99.80
2018-04-15T08:27:29.515Z,99.30
2018-04-15T08:30:05.270Z,99.00
2018-04-15T08:32:42.879Z,98.70
2018-04-15T08:35:17.910Z,98.70
2018-04-15T08:37:52.918Z,97.90
2018-04-15T08:40:28.913Z,98.20
2018-04-15T08:43:03.647Z,98.60
2018-04-15T08:45:39.386Z,98.60
2018-04-15T08:48:13.910Z,98.60
2018-04-15T08:50:49.058Z,98.30
2018-04-15T08:53:23.246Z,98.30
2018-04-15T08:55:57.207Z,98.30
2018-04-15T08:58:31.871Z,97.80
2018-04-15T09:01:06.433Z,98.10
2018-04-15T09:03:40.795Z,98.20
2018-04-15T09:06:15.085Z,98.00
2018-04-15T09:08:50.040Z,97.00
2018-04-15T09:11:24.603Z,96.00
2018-04-15T09:13:59.404Z,97.50
2018-04-15T09:16:34.110Z,97.10
2018-04-15T09:19:09.035Z,96.60
2018-04-15T09:21:43.683Z,95.70
2018-04-15T09:24:17.662Z,95.70
2018-04-15T09:26:52.796Z,92.90
2018-04-15T09:29:27.757Z,93.80
2018-04-15T09:32:01.318Z,93.80
2018-04-15T09:34:37.003Z,94.20
2018-04-15T09:37:11.447Z,93.40
2018-04-15T09:39:45.714Z,93.50
2018-04-15T09:42:19.935Z,95.20
2018-04-15T09:44:54.732Z,95.00
2018-04-15T09:47:29.762Z,94.20
2018-04-15T09:50:04.069Z,94.20
2018-04-15T09:52:38.053Z,94.60
2018-04-15T09:55:11.869Z,94.10
2018-04-15T09:57:45.687Z,93.50
2018-04-15T10:00:21.196Z,93.40
2018-04-15T10:02:56.059Z,92.70
2018-04-15T10:05:30.361Z,92.70
2018-04-15T10:08:04.547Z,92.80
2018-04-15T10:10:38.877Z,93.00
2018-04-15T10:13:13.736Z,92.30
2018-04-15T10:15:49.385Z,90.40
2018-04-15T10:18:23.385Z,90.30
2018-04-15T10:20:58.276Z,90.10
2018-04-15T10:23:32.100Z,90.00
2018-04-15T10:26:05.802Z,86.40
2018-04-15T10:28:40.735Z,89.20
2018-04-15T10:31:15.474Z,89.20
2018-04-15T10:33:50.343Z,86.60
2018-04-15T10:36:25.163Z,86.40
2018-04-15T10:38:59.863Z,87.50
2018-04-15T10:41:33.863Z,87.30
2018-04-15T10:44:07.365Z,88.30
2018-04-15T10:46:40.970Z,86.20
2018-04-15T10:49:14.654Z,89.60
2018-04-15T10:51:48.654Z,87.80
2018-04-15T10:54:24.629Z,81.10
2018-04-15T10:57:00.807Z,83.40
2018-04-15T10:59:36.442Z,85.90
2018-04-15T11:02:11.168Z,85.80
2018-04-15T11:04:47.217Z,87.70
2018-04-15T11:07:21.022Z,87.70
2018-04-15T11:09:54.735Z,85.30
2018-04-15T11:12:28.418Z,88.50
2018-04-15T11:15:04.542Z,85.70
2018-04-15T11:17:38.294Z,85.70
2018-04-15T11:20:14.531Z,84.80
2018-04-15T11:22:50.259Z,84.80
2018-04-15T11:25:28.626Z,84.30
2018-04-15T11:28:03.558Z,86.10
2018-04-15T11:30:39.477Z,85.90
2018-04-15T11:33:14.107Z,85.80
2018-04-15T11:35:48.638Z,84.40
2018-04-15T11:38:23.523Z,84.50
2018-04-15T11:40:58.680Z,84.20
2018-04-15T11:43:34.393Z,84.80
2018-04-15T11:46:08.596Z,84.80
2018-04-15T11:48:43.981Z,83.30
2018-04-15T11:51:17.868Z,83.30
2018-04-15T11:53:51.621Z,82.60
2018-04-15T11:56:25.526Z,80.40
2018-04-15T11:59:00.551Z,85.40
2018-04-15T12:01:36.914Z,85.30
2018-04-15T12:04:11.422Z,82.60
2018-04-15T12:06:45.151Z,82.50
2018-04-15T12:09:19.986Z,81.90
2018-04-15T12:11:56.763Z,80.60
2018-04-15T12:14:31.162Z,84.70
2018-04-15T12:17:06.608Z,84.90
2018-04-15T12:19:41.443Z,81.80
2018-04-15T12:22:16.213Z,82.10
2018-04-15T12:24:50.858Z,82.10
2018-04-15T12:27:24.790Z,83.50
2018-04-15T12:29:59.659Z,80.00
2018-04-15T12:32:34.003Z,79.80
2018-04-15T12:35:09.482Z,75.50
2018-04-15T12:37:43.788Z,79.50
2018-04-15T12:40:17.480Z,79.60
2018-04-15T12:42:51.307Z,71.30
2018-04-15T12:45:27.004Z,66.00
2018-04-15T12:48:01.579Z,68.20
2018-04-15T12:50:35.101Z,68.40
2018-04-15T12:53:09.987Z,64.50
2018-04-15T12:55:45.699Z,63.60
2018-04-15T12:58:19.776Z,63.50
2018-04-15T13:00:54.173Z,57.40
2018-04-15T13:03:28.802Z,52.00
2018-04-15T13:06:04.597Z,49.40
2018-04-15T13:08:39.559Z,54.20
2018-04-15T13:11:13.995Z,48.50
2018-04-15T13:13:48.097Z,48.40
2018-04-15T13:16:21.824Z,46.50
2018-04-15T13:18:56.218Z,47.20
2018-04-15T13:21:29.954Z,47.20
2018-04-15T13:24:03.959Z,49.20
2018-04-15T13:26:39.318Z,49.60
2018-04-15T13:29:14.176Z,51.10
2018-04-15T13:31:48.899Z,49.00
2018-04-15T13:34:23.531Z,46.90
2018-04-15T13:36:58.376Z,46.40
2018-04-15T13:39:32.878Z,47.10
2018-04-15T13:42:07.597Z,48.00
2018-04-15T13:44:42.164Z,47.50
2018-04-15T13:47:16.114Z,47.50
2018-04-15T13:49:53.037Z,46.40
2018-04-15T13:52:26.815Z,46.40
2018-04-15T13:55:01.792Z,48.60
2018-04-15T13:57:35.398Z,48.50
2018-04-15T14:00:10.636Z,47.80
2018-04-15T14:02:45.512Z,47.90
2018-04-15T14:05:19.346Z,47.90
2018-04-15T14:07:53.273Z,45.90
2018-04-15T14:10:28.602Z,46.40
2018-04-15T14:13:02.934Z,46.40
2018-04-15T14:15:36.892Z,46.30
2018-04-15T14:18:11.474Z,45.10
2018-04-15T14:20:45.050Z,46.00
2018-04-15T14:23:19.813Z,50.30
2018-04-15T14:25:55.102Z,49.30
2018-04-15T14:28:29.539Z,49.20
2018-04-15T14:31:03.436Z,50.00
2018-04-15T14:33:37.340Z,52.50
2018-04-15T14:36:12.089Z,52.60
2018-04-15T14:38:46.214Z,52.70
2018-04-15T14:41:21.170Z,50.40
2018-04-15T14:43:56.185Z,51.00
2018-04-15T14:46:30.033Z,51.10
2018-04-15T14:49:04.800Z,50.30
2018-04-15T14:51:39.212Z,52.50
2018-04-15T14:54:13.604Z,52.50
2018-04-15T14:56:48.363Z,50.90
2018-04-15T14:59:23.004Z,50.60
2018-04-15T15:01:57.010Z,50.50
2018-04-15T15:04:31.157Z,51.00
2018-04-15T15:07:04.902Z,49.30
2018-04-15T15:09:38.829Z,47.40
2018-04-15T15:12:13.303Z,44.00
2018-04-15T15:14:47.830Z,46.20
2018-04-15T15:17:22.461Z,45.70
2018-04-15T15:19:56.733Z,45.60
2018-04-15T15:22:30.725Z,44.50
2018-04-15T15:25:05.003Z,40.60
2018-04-15T15:27:39.223Z,38.00
2018-04-15T15:30:13.940Z,41.80
2018-04-15T15:32:47.885Z,41.70
2018-04-15T15:35:22.707Z,45.70
2018-04-15T15:37:57.292Z,48.80
2018-04-15T15:40:33.176Z,51.00
2018-04-15T15:43:08.123Z,51.10
2018-04-15T15:45:43.043Z,53.60
2018-04-15T15:48:18.546Z,53.90
2018-04-15T15:50:53.094Z,55.40
2018-04-15T15:53:27.810Z,57.70
2018-04-15T15:56:02.203Z,57.60
2018-04-15T15:58:37.093Z,65.90
2018-04-15T16:01:12.412Z,69.50
2018-04-15T16:03:47.674Z,69.80
2018-04-15T16:06:22.496Z,69.80
2018-04-15T16:08:57.223Z,75.30
2018-04-15T16:11:31.802Z,71.10
2018-04-15T16:14:06.323Z,72.20
2018-04-15T16:16:41.292Z,74.80
2018-04-15T16:19:16.817Z,69.70
2018-04-15T16:21:51.160Z,69.70
2018-04-15T16:24:25.942Z,71.50
2018-04-15T16:27:00.348Z,73.10
2018-04-15T16:29:35.351Z,73.70
2018-04-15T16:32:10.138Z,76.70
2018-04-15T16:34:44.954Z,76.60
2018-04-15T16:37:19.024Z,76.60
2018-04-15T16:39:54.008Z,78.00
2018-04-15T16:42:28.043Z,78.10
2018-04-15T16:45:01.944Z,78.70
2018-04-15T16:47:36.160Z,79.20
2018-04-15T16:50:10.075Z,81.10
2018-04-15T16:52:43.742Z,81.60
2018-04-15T16:55:18.584Z,81.30
2018-04-15T16:57:53.546Z,82.80
2018-04-15T17:00:27.222Z,82.80
2018-04-15T17:03:02.386Z,82.60
2018-04-15T17:05:36.891Z,83.80
2018-04-15T17:08:10.902Z,83.70
2018-04-15T17:10:45.703Z,83.40
2018-04-15T17:13:19.784Z,83.30
2018-04-15T17:15:54.650Z,84.60
2018-04-15T17:18:29.273Z,85.00
2018-04-15T17:21:03.090Z,85.00
2018-04-15T17:23:37.537Z,87.40
2018-04-15T17:26:12.168Z,86.50
2018-04-15T17:28:46.531Z,86.80
2018-04-15T17:31:21.132Z,87.70
2018-04-15T17:33:55.774Z,87.00
2018-04-15T17:36:30.320Z,87.80
2018-04-15T17:39:05.672Z,88.40
2018-04-15T17:41:40.393Z,88.30
2018-04-15T17:44:15.145Z,87.70
2018-04-15T17:46:49.216Z,87.70
2018-04-15T17:49:22.717Z,88.20
2018-04-15T17:51:56.629Z,87.90
2018-04-15T17:54:30.254Z,87.90
2018-04-15T17:57:04.663Z,90.00
2018-04-15T17:59:38.380Z,89.90
2018-04-15T18:02:14.021Z,87.80
2018-04-15T18:04:48.415Z,87.80
2018-04-15T18:07:23.960Z,88.40
2018-04-15T18:09:59.506Z,89.10
2018-04-15T18:12:34.426Z,90.10
2018-04-15T18:15:09.511Z,90.10
2018-04-15T18:17:43.849Z,90.10
2018-04-15T18:20:18.826Z,90.10
2018-04-15T18:22:52.699Z,90.10
2018-04-15T18:25:27.856Z,90.90
2018-04-15T18:28:02.520Z,90.70
2018-04-15T18:30:37.219Z,90.40
2018-04-15T18:33:11.106Z,90.40
2018-04-15T18:35:46.354Z,91.10
2018-04-15T18:38:21.316Z,90.90
2018-04-15T18:40:57.851Z,91.10
2018-04-15T18:43:31.562Z,91.10
2018-04-15T18:46:08.742Z,91.80
2018-04-15T18:48:43.473Z,91.80
2018-04-15T18:51:17.291Z,91.80
2018-04-15T18:53:51.796Z,91.50
2018-04-15T18:56:26.727Z,91.50
2018-04-15T18:59:01.191Z,91.80
2018-04-15T19:01:37.223Z,91.80
2018-04-15T19:04:11.415Z,91.90
2018-04-15T19:06:46.358Z,92.20
2018-04-15T19:09:21.642Z,92.10
2018-04-15T19:11:57.052Z,92.20
2018-04-15T19:14:31.764Z,92.20
2018-04-15T19:17:06.273Z,92.20
2018-04-15T19:19:40.622Z,92.40
2018-04-15T19:22:15.393Z,92.10
2018-04-15T19:24:50.104Z,92.40
2018-04-15T19:27:23.961Z,92.40
2018-04-15T19:29:58.722Z,92.40
2018-04-15T19:32:33.090Z,92.40
2018-04-15T19:35:07.218Z,92.80
2018-04-15T19:37:41.281Z,92.50
2018-04-15T19:40:15.719Z,93.40
2018-04-15T19:42:49.454Z,93.40
2018-04-15T19:45:23.475Z,93.70
2018-04-15T19:47:59.214Z,94.50
2018-04-15T19:50:33.699Z,94.20
2018-04-15T19:53:12.712Z,94.90
2018-04-15T19:55:47.107Z,94.90
2018-04-15T19:58:20.566Z,94.90
2018-04-15T20:00:54.587Z,94.80
2018-04-15T20:03:28.659Z,95.00
2018-04-15T20:06:03.217Z,94.60
2018-04-15T20:08:37.504Z,94.60
2018-04-15T20:11:11.316Z,96.10
2018-04-15T20:13:46.117Z,95.70
2018-04-15T20:16:20.156Z,95.70
2018-04-15T20:18:54.191Z,95.70
2018-04-15T20:21:29.172Z,96.80
2018-04-15T20:24:03.653Z,96.40
2018-04-15T20:26:38.261Z,96.50
2018-04-15T20:29:12.248Z,96.50
2018-04-15T20:31:46.280Z,97.10
2018-04-15T20:34:20.403Z,96.70
2018-04-15T20:36:58.029Z,97.80
2018-04-15T20:39:31.957Z,97.80
2018-04-15T20:42:06.912Z,97.60
2018-04-15T20:44:40.876Z,97.60
2018-04-15T20:47:14.544Z,97.40
2018-04-15T20:49:48.398Z,97.90
2018-04-15T20:52:22.302Z,98.00
2018-04-15T20:54:55.915Z,98.30
2018-04-15T20:57:31.385Z,98.30
2018-04-15T21:00:09.273Z,98.20
2018-04-15T21:02:46.137Z,98.30
2018-04-15T21:05:20.780Z,98.80
2018-04-15T21:07:56.650Z,98.80
2018-04-15T21:10:31.446Z,98.80
2018-04-15T21:13:12.637Z,98.80
2018-04-15T21:15:47.361Z,98.40
2018-04-15T21:18:21.445Z,98.40
2018-04-15T21:20:55.979Z,98.60
2018-04-15T21:23:30.528Z,98.60
2018-04-15T21:26:04.431Z,98.60
2018-04-15T21:28:39.263Z,98.60
2018-04-15T21:31:13.884Z,98.70
2018-04-15T21:33:49.640Z,99.50
2018-04-15T21:36:24.037Z,99.50
2018-04-15T21:38:59.902Z,99.80
2018-04-15T21:41:35.354Z,99.40
2018-04-15T21:44:11.619Z,99.50
2018-04-15T21:46:46.405Z,99.50
2018-04-15T21:49:20.751Z,99.40
2018-04-15T21:51:55.682Z,99.90
2018-04-15T21:54:30.407Z,99.90
2018-04-15T21:57:04.738Z,99.90
2018-04-15T21:59:38.940Z,99.90
2018-04-15T22:02:12.862Z,99.90
2018-04-15T22:04:48.574Z,99.90
2018-04-15T22:07:23.433Z,99.90
2018-04-15T22:09:59.276Z,99.90
2018-04-15T22:12:33.387Z,99.90
2018-04-15T22:15:09.362Z,99.90
2018-04-15T22:17:45.194Z,99.90
2018-04-15T22:20:19.714Z,99.90
2018-04-15T22:22:54.019Z,99.90
2018-04-15T22:25:28.727Z,99.90
2018-04-15T22:28:02.473Z,99.90
2018-04-15T22:30:37.014Z,99.90
2018-04-15T22:33:11.717Z,99.90
2018-04-15T22:35:46.217Z,99.90
2018-04-15T22:38:21.597Z,99.90
2018-04-15T22:40:56.395Z,99.90
2018-04-15T22:43:30.371Z,99.90
2018-04-15T22:46:05.413Z,99.90
2018-04-15T22:48:45.333Z,99.90
2018-04-15T22:51:19.527Z,99.90
2018-04-15T22:53:54.452Z,99.90
2018-04-15T22:56:44.120Z,99.90
2018-04-15T22:59:18.747Z,99.90
2018-04-15T23:01:52.754Z,99.90
2018-04-15T23:04:27.579Z,99.90
2018-04-15T23:07:01.396Z,99.90
2018-04-15T23:09:36.671Z,99.90
2018-04-15T23:12:11.855Z,99.90
2018-04-15T23:14:47.989Z,99.90
2018-04-15T23:17:22.667Z,99.90
2018-04-15T23:19:58.484Z,99.90
2018-04-15T23:22:32.081Z,99.90
2018-04-15T23:25:06.718Z,99.90
2018-04-15T23:27:40.615Z,99.90
2018-04-15T23:30:16.483Z,99.90
2018-04-15T23:32:51.190Z,99.90
2018-04-15T23:35:30.211Z,99.90
2018-04-15T23:38:09.993Z,99.90
2018-04-15T23:40:49.012Z,99.90
2018-04-15T23:43:22.639Z,99.90
2018-04-15T23:45:56.218Z,99.90
2018-04-15T23:48:29.771Z,99.90
2018-04-15T23:51:03.534Z,99.90
2018-04-15T23:53:38.334Z,99.90
2018-04-15T23:56:13.107Z,99.90
2018-04-15T23:58:47.053Z,99.90
